sensor_id;sensor_type;location;lat;lon;timestamp;temperature;humidity
15947;DHT22;8072;52.554;7.966;2023-08-06T00:00:22;14.90;99.90
15947;DHT22;8072;52.554;7.966;2023-08-06T00:02:48;14.90;99.90
15947;DHT22;8072;52.554;7.966;2023-08-06T00:05:14;14.90;99.90
15947;DHT22;8072;52.554;7.966;2023-08-06T00:07:47;14.90;99.90
15947;DHT22;8072;52.554;7.966;2023-08-06T00:10:13;14.90;99.90
15947;DHT22;8072;52.554;7.966;2023-08-06T00:12:39;14.90;99.90
15947;DHT22;8072;52.554;7.966;2023-08-06T00:15:05;14.90;99.90
15947;DHT22;8072;52.554;7.966;2023-08-06T00:17:30;14.90;99.90
15947;DHT22;8072;52.554;7.966;2023-08-06T00:19:56;14.90;99.90
15947;DHT22;8072;52.554;7.966;2023-08-06T00:22:22;14.90;99.90
15947;DHT22;8072;52.554;7.966;2023-08-06T00:24:48;14.90;99.90
15947;DHT22;8072;52.554;7.966;2023-08-06T00:27:13;14.90;99.90
15947;DHT22;8072;52.554;7.966;2023-08-06T00:29:40;14.80;99.90
15947;DHT22;8072;52.554;7.966;2023-08-06T00:32:06;14.80;99.90
15947;DHT22;8072;52.554;7.966;2023-08-06T00:34:31;14.80;99.90
15947;DHT22;8072;52.554;7.966;2023-08-06T00:36:57;14.80;99.90
15947;DHT22;8072;52.554;7.966;2023-08-06T00:39:23;14.80;99.90
15947;DHT22;8072;52.554;7.966;2023-08-06T00:41:48;14.80;99.90
15947;DHT22;8072;52.554;7.966;2023-08-06T00:44:14;14.80;99.90
15947;DHT22;8072;52.554;7.966;2023-08-06T00:46:40;14.80;99.90
15947;DHT22;8072;52.554;7.966;2023-08-06T00:49:06;14.80;99.90
15947;DHT22;8072;52.554;7.966;2023-08-06T00:51:32;14.80;99.90
15947;DHT22;8072;52.554;7.966;2023-08-06T00:53:58;14.80;99.90
15947;DHT22;8072;52.554;7.966;2023-08-06T00:56:24;14.80;99.90
15947;DHT22;8072;52.554;7.966;2023-08-06T00:58:51;14.80;99.90
15947;DHT22;8072;52.554;7.966;2023-08-06T01:01:17;14.80;99.90
15947;DHT22;8072;52.554;7.966;2023-08-06T01:03:42;14.80;99.90
15947;DHT22;8072;52.554;7.966;2023-08-06T01:06:08;14.80;99.90
15947;DHT22;8072;52.554;7.966;2023-08-06T01:08:44;14.80;99.90
15947;DHT22;8072;52.554;7.966;2023-08-06T01:11:27;14.80;99.90
15947;DHT22;8072;52.554;7.966;2023-08-06T01:14:02;14.80;99.90
15947;DHT22;8072;52.554;7.966;2023-08-06T01:16:33;14.90;99.90
15947;DHT22;8072;52.554;7.966;2023-08-06T01:18:59;14.90;99.90
15947;DHT22;8072;52.554;7.966;2023-08-06T01:21:24;14.90;99.90
15947;DHT22;8072;52.554;7.966;2023-08-06T01:23:50;14.90;99.90
15947;DHT22;8072;52.554;7.966;2023-08-06T01:26:26;14.80;99.90
15947;DHT22;8072;52.554;7.966;2023-08-06T01:31:32;14.80;99.90
15947;DHT22;8072;52.554;7.966;2023-08-06T01:34:01;14.80;99.90
15947;DHT22;8072;52.554;7.966;2023-08-06T01:36:28;14.80;99.90
15947;DHT22;8072;52.554;7.966;2023-08-06T01:38:54;14.80;99.90
15947;DHT22;8072;52.554;7.966;2023-08-06T01:41:20;14.80;99.90
15947;DHT22;8072;52.554;7.966;2023-08-06T01:43:46;14.80;99.90
15947;DHT22;8072;52.554;7.966;2023-08-06T01:46:11;14.80;99.90
15947;DHT22;8072;52.554;7.966;2023-08-06T01:48:37;14.80;99.90
15947;DHT22;8072;52.554;7.966;2023-08-06T01:51:06;14.80;99.90
15947;DHT22;8072;52.554;7.966;2023-08-06T01:53:33;14.80;99.90
15947;DHT22;8072;52.554;7.966;2023-08-06T01:55:58;14.70;99.90
15947;DHT22;8072;52.554;7.966;2023-08-06T01:58:24;14.70;99.90
15947;DHT22;8072;52.554;7.966;2023-08-06T02:00:50;14.70;99.90
15947;DHT22;8072;52.554;7.966;2023-08-06T02:03:16;14.70;99.90
15947;DHT22;8072;52.554;7.966;2023-08-06T02:05:42;14.80;99.90
15947;DHT22;8072;52.554;7.966;2023-08-06T02:08:07;14.80;99.90
15947;DHT22;8072;52.554;7.966;2023-08-06T02:10:34;14.80;99.90
15947;DHT22;8072;52.554;7.966;2023-08-06T02:12:59;14.80;99.90
15947;DHT22;8072;52.554;7.966;2023-08-06T02:15:25;14.80;99.90
15947;DHT22;8072;52.554;7.966;2023-08-06T02:17:51;14.80;99.90
15947;DHT22;8072;52.554;7.966;2023-08-06T02:20:17;14.80;99.90
15947;DHT22;8072;52.554;7.966;2023-08-06T02:22:43;14.80;99.90
15947;DHT22;8072;52.554;7.966;2023-08-06T02:25:08;14.80;99.90
15947;DHT22;8072;52.554;7.966;2023-08-06T02:27:34;14.80;99.90
15947;DHT22;8072;52.554;7.966;2023-08-06T02:30:01;14.70;99.90
15947;DHT22;8072;52.554;7.966;2023-08-06T02:32:29;14.70;99.90
15947;DHT22;8072;52.554;7.966;2023-08-06T02:34:57;14.60;99.90
15947;DHT22;8072;52.554;7.966;2023-08-06T02:37:22;14.60;99.90
15947;DHT22;8072;52.554;7.966;2023-08-06T02:39:48;14.60;99.90
15947;DHT22;8072;52.554;7.966;2023-08-06T02:42:14;14.60;99.90
15947;DHT22;8072;52.554;7.966;2023-08-06T02:44:40;14.60;99.90
15947;DHT22;8072;52.554;7.966;2023-08-06T02:47:06;14.60;99.90
15947;DHT22;8072;52.554;7.966;2023-08-06T02:49:32;14.60;99.90
15947;DHT22;8072;52.554;7.966;2023-08-06T02:51:58;14.50;99.90
15947;DHT22;8072;52.554;7.966;2023-08-06T02:54:23;14.50;99.90
15947;DHT22;8072;52.554;7.966;2023-08-06T02:56:49;14.50;99.90
15947;DHT22;8072;52.554;7.966;2023-08-06T02:59:15;14.50;99.90
15947;DHT22;8072;52.554;7.966;2023-08-06T03:01:41;14.50;99.90
15947;DHT22;8072;52.554;7.966;2023-08-06T03:04:07;14.50;99.90
15947;DHT22;8072;52.554;7.966;2023-08-06T03:06:33;14.50;99.90
15947;DHT22;8072;52.554;7.966;2023-08-06T03:08:58;14.40;99.90
15947;DHT22;8072;52.554;7.966;2023-08-06T03:11:24;14.40;99.90
15947;DHT22;8072;52.554;7.966;2023-08-06T03:13:50;14.40;99.90
15947;DHT22;8072;52.554;7.966;2023-08-06T03:16:16;14.40;99.90
15947;DHT22;8072;52.554;7.966;2023-08-06T03:18:42;14.30;99.90
15947;DHT22;8072;52.554;7.966;2023-08-06T03:21:07;14.40;99.90
15947;DHT22;8072;52.554;7.966;2023-08-06T03:23:33;14.40;99.90
15947;DHT22;8072;52.554;7.966;2023-08-06T03:26:02;14.40;99.90
15947;DHT22;8072;52.554;7.966;2023-08-06T03:28:28;14.40;99.90
15947;DHT22;8072;52.554;7.966;2023-08-06T03:33:26;14.40;99.90
15947;DHT22;8072;52.554;7.966;2023-08-06T03:35:52;14.40;99.90
15947;DHT22;8072;52.554;7.966;2023-08-06T03:38:18;14.40;99.90
15947;DHT22;8072;52.554;7.966;2023-08-06T03:40:45;14.30;99.90
15947;DHT22;8072;52.554;7.966;2023-08-06T03:43:11;14.30;99.90
15947;DHT22;8072;52.554;7.966;2023-08-06T03:45:37;14.40;99.90
15947;DHT22;8072;52.554;7.966;2023-08-06T03:48:03;14.30;99.90
15947;DHT22;8072;52.554;7.966;2023-08-06T03:50:29;14.40;99.90
15947;DHT22;8072;52.554;7.966;2023-08-06T03:52:55;14.40;99.90
15947;DHT22;8072;52.554;7.966;2023-08-06T03:55:21;14.40;99.90
15947;DHT22;8072;52.554;7.966;2023-08-06T03:57:47;14.40;99.90
15947;DHT22;8072;52.554;7.966;2023-08-06T04:00:13;14.40;99.90
15947;DHT22;8072;52.554;7.966;2023-08-06T04:02:39;14.40;99.90
15947;DHT22;8072;52.554;7.966;2023-08-06T04:05:05;14.40;99.90
15947;DHT22;8072;52.554;7.966;2023-08-06T04:07:31;14.30;99.90
15947;DHT22;8072;52.554;7.966;2023-08-06T04:09:59;14.30;99.90
15947;DHT22;8072;52.554;7.966;2023-08-06T04:12:26;14.20;99.90
15947;DHT22;8072;52.554;7.966;2023-08-06T04:14:52;14.20;99.90
15947;DHT22;8072;52.554;7.966;2023-08-06T04:17:21;14.20;99.90
15947;DHT22;8072;52.554;7.966;2023-08-06T04:19:50;14.20;99.90
15947;DHT22;8072;52.554;7.966;2023-08-06T04:22:16;14.20;99.90
15947;DHT22;8072;52.554;7.966;2023-08-06T04:24:43;14.10;99.90
15947;DHT22;8072;52.554;7.966;2023-08-06T04:27:10;14.10;99.90
15947;DHT22;8072;52.554;7.966;2023-08-06T04:29:37;14.10;99.90
15947;DHT22;8072;52.554;7.966;2023-08-06T04:32:05;14.00;99.90
15947;DHT22;8072;52.554;7.966;2023-08-06T04:34:32;14.00;99.90
15947;DHT22;8072;52.554;7.966;2023-08-06T04:36:59;14.00;99.90
15947;DHT22;8072;52.554;7.966;2023-08-06T04:39:25;13.90;99.90
15947;DHT22;8072;52.554;7.966;2023-08-06T04:41:51;13.90;99.90
15947;DHT22;8072;52.554;7.966;2023-08-06T04:44:16;13.90;99.90
15947;DHT22;8072;52.554;7.966;2023-08-06T04:46:42;13.90;99.90
15947;DHT22;8072;52.554;7.966;2023-08-06T04:49:08;13.90;99.90
15947;DHT22;8072;52.554;7.966;2023-08-06T04:51:34;13.90;99.90
15947;DHT22;8072;52.554;7.966;2023-08-06T04:54:00;14.00;99.90
15947;DHT22;8072;52.554;7.966;2023-08-06T04:56:25;13.90;99.90
15947;DHT22;8072;52.554;7.966;2023-08-06T04:58:51;13.90;99.90
15947;DHT22;8072;52.554;7.966;2023-08-06T05:01:18;13.90;99.90
15947;DHT22;8072;52.554;7.966;2023-08-06T05:03:44;13.90;99.90
15947;DHT22;8072;52.554;7.966;2023-08-06T05:06:09;14.00;99.90
15947;DHT22;8072;52.554;7.966;2023-08-06T05:08:36;14.00;99.90
15947;DHT22;8072;52.554;7.966;2023-08-06T05:11:02;14.00;99.90
15947;DHT22;8072;52.554;7.966;2023-08-06T05:13:28;14.00;99.90
15947;DHT22;8072;52.554;7.966;2023-08-06T05:15:54;14.10;99.90
15947;DHT22;8072;52.554;7.966;2023-08-06T05:18:20;14.10;99.90
15947;DHT22;8072;52.554;7.966;2023-08-06T05:20:56;14.10;99.90
15947;DHT22;8072;52.554;7.966;2023-08-06T05:23:23;14.20;99.90
15947;DHT22;8072;52.554;7.966;2023-08-06T05:25:48;14.20;99.90
15947;DHT22;8072;52.554;7.966;2023-08-06T05:28:14;14.20;99.90
15947;DHT22;8072;52.554;7.966;2023-08-06T05:30:41;14.30;99.90
15947;DHT22;8072;52.554;7.966;2023-08-06T05:33:08;14.30;99.90
15947;DHT22;8072;52.554;7.966;2023-08-06T05:35:34;14.30;99.90
15947;DHT22;8072;52.554;7.966;2023-08-06T05:38:00;14.40;99.90
15947;DHT22;8072;52.554;7.966;2023-08-06T05:40:25;14.40;99.90
15947;DHT22;8072;52.554;7.966;2023-08-06T05:42:54;14.50;99.90
15947;DHT22;8072;52.554;7.966;2023-08-06T05:45:20;14.50;99.90
15947;DHT22;8072;52.554;7.966;2023-08-06T05:47:48;14.50;99.90
15947;DHT22;8072;52.554;7.966;2023-08-06T05:50:14;14.60;99.90
15947;DHT22;8072;52.554;7.966;2023-08-06T05:52:40;14.60;99.90
15947;DHT22;8072;52.554;7.966;2023-08-06T05:55:06;14.60;99.90
15947;DHT22;8072;52.554;7.966;2023-08-06T05:57:32;14.60;99.90
15947;DHT22;8072;52.554;7.966;2023-08-06T05:59:57;14.60;99.90
15947;DHT22;8072;52.554;7.966;2023-08-06T06:02:23;14.60;99.90
15947;DHT22;8072;52.554;7.966;2023-08-06T06:04:49;14.70;99.90
15947;DHT22;8072;52.554;7.966;2023-08-06T06:07:15;14.70;99.90
15947;DHT22;8072;52.554;7.966;2023-08-06T06:09:40;14.70;99.90
15947;DHT22;8072;52.554;7.966;2023-08-06T06:12:06;14.70;99.90
15947;DHT22;8072;52.554;7.966;2023-08-06T06:14:32;14.70;99.90
15947;DHT22;8072;52.554;7.966;2023-08-06T06:16:59;14.70;99.90
15947;DHT22;8072;52.554;7.966;2023-08-06T06:19:25;14.70;99.90
15947;DHT22;8072;52.554;7.966;2023-08-06T06:21:51;14.70;99.90
15947;DHT22;8072;52.554;7.966;2023-08-06T06:24:17;14.70;99.90
15947;DHT22;8072;52.554;7.966;2023-08-06T06:26:43;14.70;99.90
15947;DHT22;8072;52.554;7.966;2023-08-06T06:29:08;14.70;99.90
15947;DHT22;8072;52.554;7.966;2023-08-06T06:31:34;14.70;99.90
15947;DHT22;8072;52.554;7.966;2023-08-06T06:34:00;14.70;99.90
15947;DHT22;8072;52.554;7.966;2023-08-06T06:36:26;14.80;99.90
15947;DHT22;8072;52.554;7.966;2023-08-06T06:38:52;14.80;99.90
15947;DHT22;8072;52.554;7.966;2023-08-06T06:41:17;14.80;99.90
15947;DHT22;8072;52.554;7.966;2023-08-06T06:43:44;14.80;99.90
15947;DHT22;8072;52.554;7.966;2023-08-06T06:46:09;14.80;99.90
15947;DHT22;8072;52.554;7.966;2023-08-06T06:48:35;14.80;99.90
15947;DHT22;8072;52.554;7.966;2023-08-06T06:51:01;14.80;99.90
15947;DHT22;8072;52.554;7.966;2023-08-06T06:53:26;14.90;99.90
15947;DHT22;8072;52.554;7.966;2023-08-06T06:56:00;14.90;99.90
15947;DHT22;8072;52.554;7.966;2023-08-06T06:58:26;14.90;99.90
15947;DHT22;8072;52.554;7.966;2023-08-06T07:00:52;15.00;99.90
15947;DHT22;8072;52.554;7.966;2023-08-06T07:03:20;15.00;99.90
15947;DHT22;8072;52.554;7.966;2023-08-06T07:05:46;15.10;99.90
15947;DHT22;8072;52.554;7.966;2023-08-06T07:08:11;15.10;99.90
15947;DHT22;8072;52.554;7.966;2023-08-06T07:10:38;15.20;99.90
15947;DHT22;8072;52.554;7.966;2023-08-06T07:13:04;15.20;99.90
15947;DHT22;8072;52.554;7.966;2023-08-06T07:15:29;15.30;99.90
15947;DHT22;8072;52.554;7.966;2023-08-06T07:17:55;15.30;99.90
15947;DHT22;8072;52.554;7.966;2023-08-06T07:20:21;15.40;99.90
15947;DHT22;8072;52.554;7.966;2023-08-06T07:22:46;15.50;99.90
15947;DHT22;8072;52.554;7.966;2023-08-06T07:25:12;15.50;99.90
15947;DHT22;8072;52.554;7.966;2023-08-06T07:27:39;15.50;99.90
15947;DHT22;8072;52.554;7.966;2023-08-06T07:30:05;15.60;99.90
15947;DHT22;8072;52.554;7.966;2023-08-06T07:32:31;15.60;99.90
15947;DHT22;8072;52.554;7.966;2023-08-06T07:34:57;15.70;99.90
15947;DHT22;8072;52.554;7.966;2023-08-06T07:37:26;15.70;99.90
15947;DHT22;8072;52.554;7.966;2023-08-06T07:39:58;15.80;99.90
15947;DHT22;8072;52.554;7.966;2023-08-06T07:42:24;15.80;99.90
15947;DHT22;8072;52.554;7.966;2023-08-06T07:44:59;15.90;99.90
15947;DHT22;8072;52.554;7.966;2023-08-06T07:47:25;16.00;99.90
15947;DHT22;8072;52.554;7.966;2023-08-06T07:49:51;16.10;99.90
15947;DHT22;8072;52.554;7.966;2023-08-06T07:52:17;16.20;99.90
15947;DHT22;8072;52.554;7.966;2023-08-06T07:54:43;16.20;99.90
15947;DHT22;8072;52.554;7.966;2023-08-06T07:57:09;16.30;99.90
15947;DHT22;8072;52.554;7.966;2023-08-06T07:59:35;16.50;99.90
15947;DHT22;8072;52.554;7.966;2023-08-06T08:02:01;16.60;99.90
15947;DHT22;8072;52.554;7.966;2023-08-06T08:04:27;16.70;99.90
15947;DHT22;8072;52.554;7.966;2023-08-06T08:06:52;16.70;99.90
15947;DHT22;8072;52.554;7.966;2023-08-06T08:09:18;16.80;99.90
15947;DHT22;8072;52.554;7.966;2023-08-06T08:11:45;16.90;99.90
15947;DHT22;8072;52.554;7.966;2023-08-06T08:14:11;17.00;99.90
15947;DHT22;8072;52.554;7.966;2023-08-06T08:16:37;17.10;99.90
15947;DHT22;8072;52.554;7.966;2023-08-06T08:19:02;17.20;99.90
15947;DHT22;8072;52.554;7.966;2023-08-06T08:21:29;17.20;99.90
15947;DHT22;8072;52.554;7.966;2023-08-06T08:23:55;17.30;99.90
15947;DHT22;8072;52.554;7.966;2023-08-06T08:26:21;17.40;99.90
15947;DHT22;8072;52.554;7.966;2023-08-06T08:28:47;17.40;99.90
15947;DHT22;8072;52.554;7.966;2023-08-06T08:31:12;17.50;99.90
15947;DHT22;8072;52.554;7.966;2023-08-06T08:33:38;17.50;99.90
15947;DHT22;8072;52.554;7.966;2023-08-06T08:36:04;17.50;99.90
15947;DHT22;8072;52.554;7.966;2023-08-06T08:38:30;17.40;99.90
15947;DHT22;8072;52.554;7.966;2023-08-06T08:40:56;17.40;99.90
15947;DHT22;8072;52.554;7.966;2023-08-06T08:43:22;17.40;99.90
15947;DHT22;8072;52.554;7.966;2023-08-06T08:45:52;17.40;99.90
15947;DHT22;8072;52.554;7.966;2023-08-06T08:48:21;17.50;99.90
15947;DHT22;8072;52.554;7.966;2023-08-06T08:50:48;17.50;99.90
15947;DHT22;8072;52.554;7.966;2023-08-06T08:53:16;17.50;99.90
15947;DHT22;8072;52.554;7.966;2023-08-06T08:55:43;17.50;99.90
15947;DHT22;8072;52.554;7.966;2023-08-06T08:58:10;17.60;99.90
15947;DHT22;8072;52.554;7.966;2023-08-06T09:00:36;17.70;99.90
15947;DHT22;8072;52.554;7.966;2023-08-06T09:03:06;17.80;99.90
15947;DHT22;8072;52.554;7.966;2023-08-06T09:05:32;17.90;99.90
15947;DHT22;8072;52.554;7.966;2023-08-06T09:08:03;17.90;99.90
15947;DHT22;8072;52.554;7.966;2023-08-06T09:10:30;17.90;99.90
15947;DHT22;8072;52.554;7.966;2023-08-06T09:12:59;17.90;99.90
15947;DHT22;8072;52.554;7.966;2023-08-06T09:15:27;18.00;99.90
15947;DHT22;8072;52.554;7.966;2023-08-06T09:17:53;18.10;99.90
15947;DHT22;8072;52.554;7.966;2023-08-06T09:20:20;18.10;99.90
15947;DHT22;8072;52.554;7.966;2023-08-06T09:22:45;18.10;99.90
15947;DHT22;8072;52.554;7.966;2023-08-06T09:25:21;18.30;99.90
15947;DHT22;8072;52.554;7.966;2023-08-06T09:27:50;18.30;99.90
15947;DHT22;8072;52.554;7.966;2023-08-06T09:30:32;18.40;99.90
15947;DHT22;8072;52.554;7.966;2023-08-06T09:32:59;18.60;99.90
15947;DHT22;8072;52.554;7.966;2023-08-06T09:35:27;18.70;99.90
15947;DHT22;8072;52.554;7.966;2023-08-06T09:37:53;18.80;99.90
15947;DHT22;8072;52.554;7.966;2023-08-06T09:40:25;18.80;99.90
15947;DHT22;8072;52.554;7.966;2023-08-06T09:42:54;18.80;99.90
15947;DHT22;8072;52.554;7.966;2023-08-06T09:45:21;18.80;99.90
15947;DHT22;8072;52.554;7.966;2023-08-06T09:47:50;18.80;99.90
15947;DHT22;8072;52.554;7.966;2023-08-06T09:50:21;18.80;99.90
15947;DHT22;8072;52.554;7.966;2023-08-06T09:52:47;18.80;99.90
15947;DHT22;8072;52.554;7.966;2023-08-06T09:55:16;18.90;99.90
15947;DHT22;8072;52.554;7.966;2023-08-06T09:57:42;19.00;99.90
15947;DHT22;8072;52.554;7.966;2023-08-06T10:00:09;19.20;99.90
15947;DHT22;8072;52.554;7.966;2023-08-06T10:02:38;19.30;99.90
15947;DHT22;8072;52.554;7.966;2023-08-06T10:05:08;19.50;99.90
15947;DHT22;8072;52.554;7.966;2023-08-06T10:07:34;19.60;99.90
15947;DHT22;8072;52.554;7.966;2023-08-06T10:10:01;19.60;99.90
15947;DHT22;8072;52.554;7.966;2023-08-06T10:12:32;19.70;99.90
15947;DHT22;8072;52.554;7.966;2023-08-06T10:15:03;19.80;99.90
15947;DHT22;8072;52.554;7.966;2023-08-06T10:17:31;20.00;99.90
15947;DHT22;8072;52.554;7.966;2023-08-06T10:19:59;20.00;99.90
15947;DHT22;8072;52.554;7.966;2023-08-06T10:22:25;20.00;99.90
15947;DHT22;8072;52.554;7.966;2023-08-06T10:27:33;20.20;99.90
15947;DHT22;8072;52.554;7.966;2023-08-06T10:30:22;20.30;99.90
15947;DHT22;8072;52.554;7.966;2023-08-06T10:32:52;20.40;99.90
15947;DHT22;8072;52.554;7.966;2023-08-06T10:35:37;20.40;99.90
15947;DHT22;8072;52.554;7.966;2023-08-06T10:38:25;20.40;99.90
15947;DHT22;8072;52.554;7.966;2023-08-06T10:45:58;20.30;99.90
15947;DHT22;8072;52.554;7.966;2023-08-06T10:48:38;20.30;99.90
15947;DHT22;8072;52.554;7.966;2023-08-06T10:51:12;20.40;99.90
15947;DHT22;8072;52.554;7.966;2023-08-06T10:53:46;20.60;99.90
15947;DHT22;8072;52.554;7.966;2023-08-06T10:56:16;20.80;99.90
15947;DHT22;8072;52.554;7.966;2023-08-06T10:58:43;21.00;99.90
15947;DHT22;8072;52.554;7.966;2023-08-06T11:01:09;21.00;99.90
15947;DHT22;8072;52.554;7.966;2023-08-06T11:03:34;20.90;99.90
15947;DHT22;8072;52.554;7.966;2023-08-06T11:06:01;20.70;99.90
15947;DHT22;8072;52.554;7.966;2023-08-06T11:08:34;20.50;99.90
15947;DHT22;8072;52.554;7.966;2023-08-06T11:11:11;20.40;99.90
15947;DHT22;8072;52.554;7.966;2023-08-06T11:13:38;20.40;99.90
15947;DHT22;8072;52.554;7.966;2023-08-06T11:16:05;20.30;99.90
15947;DHT22;8072;52.554;7.966;2023-08-06T11:18:34;20.20;99.90
15947;DHT22;8072;52.554;7.966;2023-08-06T11:21:01;20.10;99.90
15947;DHT22;8072;52.554;7.966;2023-08-06T11:23:28;20.00;99.90
15947;DHT22;8072;52.554;7.966;2023-08-06T11:25:57;20.00;99.90
15947;DHT22;8072;52.554;7.966;2023-08-06T11:28:24;20.00;99.90
15947;DHT22;8072;52.554;7.966;2023-08-06T11:30:50;19.90;99.90
15947;DHT22;8072;52.554;7.966;2023-08-06T11:33:26;19.80;99.90
15947;DHT22;8072;52.554;7.966;2023-08-06T11:35:54;19.70;99.90
15947;DHT22;8072;52.554;7.966;2023-08-06T11:38:21;19.70;99.90
15947;DHT22;8072;52.554;7.966;2023-08-06T11:40:47;19.60;99.90
15947;DHT22;8072;52.554;7.966;2023-08-06T11:43:13;19.50;99.90
15947;DHT22;8072;52.554;7.966;2023-08-06T11:45:40;19.50;99.90
15947;DHT22;8072;52.554;7.966;2023-08-06T11:48:07;19.50;99.90
15947;DHT22;8072;52.554;7.966;2023-08-06T11:50:37;19.50;99.90
15947;DHT22;8072;52.554;7.966;2023-08-06T11:53:03;19.40;99.90
15947;DHT22;8072;52.554;7.966;2023-08-06T11:55:29;19.40;99.90
15947;DHT22;8072;52.554;7.966;2023-08-06T11:57:55;19.50;99.90
15947;DHT22;8072;52.554;7.966;2023-08-06T12:00:24;19.50;99.90
15947;DHT22;8072;52.554;7.966;2023-08-06T12:02:50;19.50;99.90
15947;DHT22;8072;52.554;7.966;2023-08-06T12:07:54;19.50;99.90
15947;DHT22;8072;52.554;7.966;2023-08-06T12:10:21;19.50;99.90
15947;DHT22;8072;52.554;7.966;2023-08-06T12:12:47;19.50;99.90
15947;DHT22;8072;52.554;7.966;2023-08-06T12:15:13;19.60;99.90
15947;DHT22;8072;52.554;7.966;2023-08-06T12:17:39;19.60;99.90
15947;DHT22;8072;52.554;7.966;2023-08-06T12:20:06;19.70;99.90
15947;DHT22;8072;52.554;7.966;2023-08-06T12:22:33;19.70;99.90
15947;DHT22;8072;52.554;7.966;2023-08-06T12:25:05;19.70;99.90
15947;DHT22;8072;52.554;7.966;2023-08-06T12:27:38;19.80;99.90
15947;DHT22;8072;52.554;7.966;2023-08-06T12:30:05;19.80;99.90
15947;DHT22;8072;52.554;7.966;2023-08-06T12:32:31;19.90;99.90
15947;DHT22;8072;52.554;7.966;2023-08-06T12:34:57;20.00;99.90
15947;DHT22;8072;52.554;7.966;2023-08-06T12:37:24;20.00;99.90
15947;DHT22;8072;52.554;7.966;2023-08-06T12:39:50;20.00;99.90
15947;DHT22;8072;52.554;7.966;2023-08-06T12:42:16;20.10;99.90
15947;DHT22;8072;52.554;7.966;2023-08-06T12:44:41;20.10;99.90
15947;DHT22;8072;52.554;7.966;2023-08-06T12:47:08;20.20;99.90
15947;DHT22;8072;52.554;7.966;2023-08-06T12:49:33;20.20;99.90
15947;DHT22;8072;52.554;7.966;2023-08-06T12:51:59;20.10;99.90
15947;DHT22;8072;52.554;7.966;2023-08-06T12:54:25;20.10;99.90
15947;DHT22;8072;52.554;7.966;2023-08-06T12:56:52;20.20;99.90
15947;DHT22;8072;52.554;7.966;2023-08-06T12:59:18;20.20;99.90
15947;DHT22;8072;52.554;7.966;2023-08-06T13:01:44;20.20;99.90
15947;DHT22;8072;52.554;7.966;2023-08-06T13:04:10;20.20;99.90
15947;DHT22;8072;52.554;7.966;2023-08-06T13:06:37;20.20;99.90
15947;DHT22;8072;52.554;7.966;2023-08-06T13:09:05;20.10;99.90
15947;DHT22;8072;52.554;7.966;2023-08-06T13:11:31;20.10;99.90
15947;DHT22;8072;52.554;7.966;2023-08-06T13:14:17;20.20;99.90
15947;DHT22;8072;52.554;7.966;2023-08-06T13:16:43;20.20;99.90
15947;DHT22;8072;52.554;7.966;2023-08-06T13:19:10;20.10;99.90
15947;DHT22;8072;52.554;7.966;2023-08-06T13:24:08;20.20;99.90
15947;DHT22;8072;52.554;7.966;2023-08-06T13:26:34;20.20;99.90
15947;DHT22;8072;52.554;7.966;2023-08-06T13:29:00;20.30;99.90
15947;DHT22;8072;52.554;7.966;2023-08-06T13:31:28;20.30;99.90
15947;DHT22;8072;52.554;7.966;2023-08-06T13:33:57;20.30;99.90
15947;DHT22;8072;52.554;7.966;2023-08-06T13:36:24;20.30;99.90
15947;DHT22;8072;52.554;7.966;2023-08-06T13:38:50;20.30;99.90
15947;DHT22;8072;52.554;7.966;2023-08-06T13:41:16;20.20;99.90
15947;DHT22;8072;52.554;7.966;2023-08-06T13:43:42;20.30;99.90
15947;DHT22;8072;52.554;7.966;2023-08-06T13:46:08;20.30;99.90
15947;DHT22;8072;52.554;7.966;2023-08-06T13:48:34;20.30;99.90
15947;DHT22;8072;52.554;7.966;2023-08-06T13:51:00;20.40;99.90
15947;DHT22;8072;52.554;7.966;2023-08-06T13:53:26;20.30;99.90
15947;DHT22;8072;52.554;7.966;2023-08-06T13:55:56;20.40;99.90
15947;DHT22;8072;52.554;7.966;2023-08-06T13:58:22;20.30;99.90
15947;DHT22;8072;52.554;7.966;2023-08-06T14:00:49;20.30;99.90
15947;DHT22;8072;52.554;7.966;2023-08-06T14:03:14;20.30;99.90
15947;DHT22;8072;52.554;7.966;2023-08-06T14:05:41;20.30;99.90
15947;DHT22;8072;52.554;7.966;2023-08-06T14:08:07;20.30;99.90
15947;DHT22;8072;52.554;7.966;2023-08-06T14:10:32;20.30;99.90
15947;DHT22;8072;52.554;7.966;2023-08-06T14:12:58;20.40;99.90
15947;DHT22;8072;52.554;7.966;2023-08-06T14:15:24;20.50;99.90
15947;DHT22;8072;52.554;7.966;2023-08-06T14:17:50;20.50;99.90
15947;DHT22;8072;52.554;7.966;2023-08-06T14:20:15;20.70;99.90
15947;DHT22;8072;52.554;7.966;2023-08-06T14:22:41;20.70;99.90
15947;DHT22;8072;52.554;7.966;2023-08-06T14:25:07;20.70;99.90
15947;DHT22;8072;52.554;7.966;2023-08-06T14:27:33;20.80;99.90
15947;DHT22;8072;52.554;7.966;2023-08-06T14:29:59;20.80;99.90
15947;DHT22;8072;52.554;7.966;2023-08-06T14:32:25;20.90;99.90
15947;DHT22;8072;52.554;7.966;2023-08-06T14:34:51;20.90;99.90
15947;DHT22;8072;52.554;7.966;2023-08-06T14:37:17;21.00;99.90
15947;DHT22;8072;52.554;7.966;2023-08-06T14:39:43;21.10;99.90
15947;DHT22;8072;52.554;7.966;2023-08-06T14:42:09;21.20;99.90
15947;DHT22;8072;52.554;7.966;2023-08-06T14:44:35;21.10;99.90
15947;DHT22;8072;52.554;7.966;2023-08-06T14:47:00;20.90;99.90
15947;DHT22;8072;52.554;7.966;2023-08-06T14:49:26;20.80;99.90
15947;DHT22;8072;52.554;7.966;2023-08-06T14:51:52;20.80;99.90
15947;DHT22;8072;52.554;7.966;2023-08-06T14:54:17;20.70;99.90
15947;DHT22;8072;52.554;7.966;2023-08-06T14:56:43;20.70;99.90
15947;DHT22;8072;52.554;7.966;2023-08-06T14:59:09;20.70;99.90
15947;DHT22;8072;52.554;7.966;2023-08-06T15:01:35;20.70;99.90
15947;DHT22;8072;52.554;7.966;2023-08-06T15:04:01;20.60;99.90
15947;DHT22;8072;52.554;7.966;2023-08-06T15:06:26;20.60;99.90
15947;DHT22;8072;52.554;7.966;2023-08-06T15:08:52;20.60;99.90
15947;DHT22;8072;52.554;7.966;2023-08-06T15:11:19;20.60;99.90
15947;DHT22;8072;52.554;7.966;2023-08-06T15:13:45;20.70;99.90
15947;DHT22;8072;52.554;7.966;2023-08-06T15:16:11;20.80;99.90
15947;DHT22;8072;52.554;7.966;2023-08-06T15:18:36;20.80;99.90
15947;DHT22;8072;52.554;7.966;2023-08-06T15:21:02;20.90;99.90
15947;DHT22;8072;52.554;7.966;2023-08-06T15:23:28;20.90;99.90
15947;DHT22;8072;52.554;7.966;2023-08-06T15:25:53;20.90;99.90
15947;DHT22;8072;52.554;7.966;2023-08-06T15:28:19;20.90;99.90
15947;DHT22;8072;52.554;7.966;2023-08-06T15:30:49;21.00;99.90
15947;DHT22;8072;52.554;7.966;2023-08-06T15:33:16;21.10;99.90
15947;DHT22;8072;52.554;7.966;2023-08-06T15:35:42;21.20;99.90
15947;DHT22;8072;52.554;7.966;2023-08-06T15:38:08;21.30;99.90
15947;DHT22;8072;52.554;7.966;2023-08-06T15:40:34;21.30;99.90
15947;DHT22;8072;52.554;7.966;2023-08-06T15:42:59;21.30;99.90
15947;DHT22;8072;52.554;7.966;2023-08-06T15:45:25;21.30;99.90
15947;DHT22;8072;52.554;7.966;2023-08-06T15:47:52;21.10;99.90
15947;DHT22;8072;52.554;7.966;2023-08-06T15:50:18;21.00;99.90
15947;DHT22;8072;52.554;7.966;2023-08-06T15:52:43;20.90;99.90
15947;DHT22;8072;52.554;7.966;2023-08-06T15:55:09;20.90;99.90
15947;DHT22;8072;52.554;7.966;2023-08-06T15:57:35;20.80;99.90
15947;DHT22;8072;52.554;7.966;2023-08-06T16:00:02;20.70;99.90